createdAt,value
2022-09-14T00:01:26.185Z,17.90
2022-09-14T00:06:31.533Z,18.00
2022-09-14T00:11:37.817Z,18.00
2022-09-14T00:16:42.525Z,18.00
2022-09-14T00:21:45.807Z,17.90
2022-09-14T00:26:50.878Z,17.90
2022-09-14T00:31:54.111Z,17.80
2022-09-14T00:36:57.264Z,17.80
2022-09-14T00:42:05.490Z,17.80
2022-09-14T00:47:08.720Z,17.70
2022-09-14T00:52:16.355Z,17.70
2022-09-14T00:57:24.800Z,17.70
2022-09-14T01:02:29.448Z,17.70
2022-09-14T01:07:47.106Z,17.70
2022-09-14T01:13:00.398Z,17.70
2022-09-14T01:18:08.419Z,17.80
2022-09-14T01:23:18.444Z,17.70
2022-09-14T01:28:28.916Z,17.70
2022-09-14T01:33:37.637Z,17.70
2022-09-14T01:38:44.887Z,17.60
2022-09-14T01:43:54.110Z,17.50
2022-09-14T01:49:03.552Z,17.50
2022-09-14T01:54:11.476Z,17.50
2022-09-14T01:59:19.190Z,17.50
2022-09-14T02:04:31.445Z,17.50
2022-09-14T02:09:34.656Z,17.40
2022-09-14T02:14:39.201Z,17.30
2022-09-14T02:19:48.045Z,17.20
2022-09-14T02:24:52.578Z,17.20
2022-09-14T02:29:57.111Z,17.40
2022-09-14T02:35:10.290Z,17.30
2022-09-14T02:40:21.302Z,17.40
2022-09-14T02:45:40.436Z,17.50
2022-09-14T02:50:51.510Z,17.50
2022-09-14T02:55:59.310Z,17.50
2022-09-14T03:01:05.558Z,17.50
2022-09-14T03:06:09.212Z,17.40
2022-09-14T03:11:12.310Z,17.40
2022-09-14T03:16:18.611Z,17.40
2022-09-14T03:21:21.885Z,17.30
2022-09-14T03:26:26.586Z,17.30
2022-09-14T03:31:31.172Z,17.30
2022-09-14T03:36:34.280Z,17.30
2022-09-14T03:41:37.533Z,17.20
2022-09-14T03:46:42.183Z,17.30
2022-09-14T03:51:46.148Z,17.20
2022-09-14T03:56:49.250Z,17.20
2022-09-14T04:01:53.948Z,17.20
2022-09-14T04:06:57.097Z,17.20
2022-09-14T04:12:00.189Z,17.20
2022-09-14T04:17:05.425Z,17.10
2022-09-14T04:22:08.534Z,17.10
2022-09-14T04:27:11.719Z,17.00
2022-09-14T04:32:16.159Z,17.00
2022-09-14T04:37:19.299Z,17.00
2022-09-14T04:42:22.369Z,16.90
2022-09-14T04:47:27.153Z,16.90
2022-09-14T04:52:30.321Z,17.00
2022-09-14T04:57:33.597Z,17.00
2022-09-14T05:02:42.367Z,17.00
2022-09-14T05:07:45.490Z,17.00
2022-09-14T05:12:48.625Z,17.10
2022-09-14T05:17:53.189Z,17.30
2022-09-14T05:22:56.289Z,17.40
2022-09-14T05:28:03.920Z,17.50
2022-09-14T05:33:08.501Z,17.50
2022-09-14T05:38:11.635Z,17.60
2022-09-14T05:43:14.745Z,17.60
2022-09-14T05:48:19.756Z,17.70
2022-09-14T05:53:22.862Z,17.80
2022-09-14T05:58:25.927Z,17.90
2022-09-14T06:03:30.474Z,18.10
2022-09-14T06:08:33.833Z,18.30
2022-09-14T06:13:40.946Z,18.60
2022-09-14T06:18:46.662Z,18.70
2022-09-14T06:23:51.027Z,18.70
2022-09-14T06:29:02.087Z,18.80
2022-09-14T06:34:06.527Z,18.80
2022-09-14T06:39:10.381Z,18.80
2022-09-14T06:44:14.157Z,18.80
2022-09-14T06:49:20.876Z,18.90
2022-09-14T06:54:24.659Z,19.10
2022-09-14T06:59:27.786Z,19.30
2022-09-14T07:04:32.402Z,19.50
2022-09-14T07:09:35.644Z,19.70
2022-09-14T07:14:39.044Z,19.80
2022-09-14T07:19:43.750Z,20.20
2022-09-14T07:24:46.810Z,20.70
2022-09-14T07:29:50.005Z,21.20
2022-09-14T07:34:54.582Z,21.20
2022-09-14T07:39:57.782Z,21.20
2022-09-14T07:45:03.475Z,22.20
2022-09-14T07:50:09.087Z,22.90
2022-09-14T07:55:13.517Z,23.60
2022-09-14T08:00:17.902Z,24.50
2022-09-14T08:05:22.585Z,24.50
2022-09-14T08:10:26.175Z,25.00
2022-09-14T08:15:29.433Z,25.50
2022-09-14T08:20:34.999Z,25.20
2022-09-14T08:25:38.152Z,26.30
2022-09-14T08:30:41.617Z,25.80
2022-09-14T08:36:01.628Z,26.30
2022-09-14T08:41:19.363Z,27.50
2022-09-14T08:46:31.602Z,26.90
2022-09-14T08:51:36.407Z,27.40
2022-09-14T08:56:44.758Z,29.30
2022-09-14T09:01:55.481Z,29.00
2022-09-14T09:07:06.500Z,28.60
2022-09-14T09:12:16.126Z,29.60
2022-09-14T09:17:23.269Z,29.70
2022-09-14T09:22:31.563Z,28.50
2022-09-14T09:27:34.686Z,27.50
2022-09-14T09:32:38.741Z,26.40
2022-09-14T09:37:43.366Z,25.50
2022-09-14T09:43:09.207Z,26.10
2022-09-14T09:48:15.555Z,25.50
2022-09-14T09:53:23.469Z,26.80
2022-09-14T09:58:36.070Z,27.90
2022-09-14T10:03:40.808Z,28.50
2022-09-14T10:08:48.048Z,28.10
2022-09-14T10:13:51.246Z,28.00
2022-09-14T10:18:55.435Z,27.40
2022-09-14T10:24:07.775Z,26.90
2022-09-14T10:29:30.770Z,26.80
2022-09-14T10:34:34.095Z,26.80
2022-09-14T10:39:44.625Z,26.40
2022-09-14T10:44:59.540Z,26.40
2022-09-14T10:50:14.859Z,26.60
2022-09-14T10:55:32.327Z,26.50
2022-09-14T11:00:43.518Z,26.50
2022-09-14T11:05:53.649Z,26.70
2022-09-14T11:11:23.600Z,27.00
2022-09-14T11:16:48.336Z,26.60
2022-09-14T11:21:58.108Z,26.10
2022-09-14T11:27:07.062Z,25.80
2022-09-14T11:32:21.267Z,25.70
2022-09-14T11:37:33.452Z,25.70
2022-09-14T11:42:44.889Z,26.00
2022-09-14T11:47:54.369Z,26.10
2022-09-14T11:53:10.484Z,25.70
2022-09-14T11:58:22.880Z,25.50
2022-09-14T12:03:54.063Z,25.10
2022-09-14T12:09:52.309Z,24.80
2022-09-14T12:15:03.066Z,24.40
2022-09-14T12:20:41.972Z,23.80
2022-09-14T12:25:56.530Z,23.30
2022-09-14T12:31:14.824Z,23.00
2022-09-14T12:36:52.058Z,22.40
2022-09-14T12:42:03.843Z,22.20
2022-09-14T12:47:52.054Z,22.00
2022-09-14T12:53:27.891Z,21.90
2022-09-14T12:58:45.050Z,22.00
2022-09-14T13:03:52.722Z,22.00
2022-09-14T13:08:59.167Z,21.60
2022-09-14T13:14:05.226Z,21.20
2022-09-14T13:19:23.279Z,20.80
2022-09-14T13:24:31.240Z,20.70
2022-09-14T13:29:34.443Z,20.70
2022-09-14T13:34:40.917Z,20.70
2022-09-14T13:39:51.988Z,20.80
2022-09-14T13:44:56.875Z,20.70
2022-09-14T13:50:03.649Z,20.60
2022-09-14T13:55:19.737Z,20.40
2022-09-14T14:00:23.033Z,20.60
2022-09-14T14:05:29.664Z,20.80
2022-09-14T14:10:39.436Z,21.00
2022-09-14T14:15:49.982Z,21.10
2022-09-14T14:21:08.299Z,21.40
2022-09-14T14:26:18.180Z,21.70
2022-09-14T14:31:30.177Z,21.70
2022-09-14T14:36:38.246Z,21.30
2022-09-14T14:41:41.413Z,20.50
2022-09-14T14:46:45.662Z,20.00
2022-09-14T14:51:51.673Z,19.70
2022-09-14T14:56:54.706Z,19.50
2022-09-14T15:01:58.498Z,19.40
2022-09-14T15:07:03.093Z,19.20
2022-09-14T15:12:06.327Z,19.10
2022-09-14T15:17:11.220Z,19.10
2022-09-14T15:22:15.704Z,19.00
2022-09-14T15:27:18.792Z,19.10
2022-09-14T15:32:21.866Z,19.20
2022-09-14T15:42:54.309Z,19.40
2022-09-14T15:47:57.513Z,19.50
2022-09-14T15:53:02.939Z,19.30
2022-09-14T15:58:06.262Z,19.30
2022-09-14T16:03:10.747Z,19.20
2022-09-14T16:08:15.537Z,19.10
2022-09-14T16:13:18.913Z,19.30
2022-09-14T16:24:01.886Z,19.30
2022-09-14T16:29:08.501Z,19.10
2022-09-14T16:34:14.715Z,18.90
2022-09-14T16:39:22.966Z,18.80
2022-09-14T16:44:27.867Z,18.90
2022-09-14T16:49:31.047Z,18.90
2022-09-14T16:54:39.350Z,18.80
2022-09-14T16:59:42.477Z,18.80
2022-09-14T17:04:45.614Z,18.70
2022-09-14T17:09:50.506Z,18.60
2022-09-14T17:14:54.336Z,18.50
2022-09-14T17:20:00.983Z,18.40
2022-09-14T17:25:06.509Z,18.30
2022-09-14T17:30:10.819Z,18.20
2022-09-14T17:35:17.350Z,17.90
2022-09-14T17:40:21.863Z,17.70
2022-09-14T17:45:25.261Z,17.60
2022-09-14T17:50:28.427Z,17.50
2022-09-14T17:55:33.713Z,17.30
2022-09-14T18:00:37.722Z,17.30
2022-09-14T18:05:41.105Z,17.30
2022-09-14T18:10:45.706Z,17.20
2022-09-14T18:15:48.864Z,17.10
2022-09-14T18:20:52.020Z,17.10
2022-09-14T18:25:56.840Z,17.20
2022-09-14T18:31:01.953Z,17.00
2022-09-14T18:36:06.793Z,16.90
2022-09-14T18:41:12.829Z,16.80
2022-09-14T19:03:16.139Z,17.20
2022-09-14T19:08:19.451Z,17.20
2022-09-14T19:13:23.067Z,17.20
2022-09-14T19:18:27.988Z,17.30
2022-09-14T19:23:36.923Z,17.20
2022-09-14T19:28:40.194Z,17.10
2022-09-14T19:33:49.238Z,17.10
2022-09-14T19:38:53.499Z,17.00
2022-09-14T19:43:56.789Z,17.00
2022-09-14T19:49:01.364Z,16.80
2022-09-14T19:54:05.993Z,16.80
2022-09-14T19:59:09.741Z,16.70
2022-09-14T20:04:23.765Z,16.70
2022-09-14T20:09:27.238Z,16.60
2022-09-14T20:14:30.635Z,16.60
2022-09-14T20:19:36.559Z,16.50
2022-09-14T20:24:41.066Z,16.40
2022-09-14T20:29:44.325Z,16.40
2022-09-14T20:34:48.881Z,16.30
2022-09-14T20:39:52.111Z,16.30
2022-09-14T20:44:55.346Z,16.30
2022-09-14T20:49:59.988Z,16.20
2022-09-14T20:55:03.154Z,16.10
2022-09-14T21:00:07.301Z,16.10
2022-09-14T21:05:12.021Z,16.00
2022-09-14T21:10:15.223Z,15.90
2022-09-14T21:15:21.960Z,15.80
2022-09-14T21:20:26.619Z,15.80
2022-09-14T21:25:29.804Z,15.70
2022-09-14T21:30:33.007Z,15.70
2022-09-14T21:35:37.546Z,15.60
2022-09-14T21:40:45.014Z,15.60
2022-09-14T21:45:48.208Z,15.60
2022-09-14T21:51:01.546Z,15.60
2022-09-14T21:56:06.541Z,15.60
2022-09-14T22:01:10.635Z,15.60
2022-09-14T22:06:16.365Z,15.70
2022-09-14T22:11:23.188Z,15.70
2022-09-14T22:16:28.164Z,15.70
2022-09-14T22:21:34.285Z,15.70
2022-09-14T22:26:39.669Z,15.90
2022-09-14T22:31:44.563Z,16.00
2022-09-14T22:36:50.057Z,16.10
2022-09-14T22:41:54.454Z,16.00
2022-09-14T22:46:57.569Z,15.90
2022-09-14T22:52:02.306Z,16.10
2022-09-14T22:57:05.549Z,16.40
2022-09-14T23:02:08.688Z,16.40
2022-09-14T23:07:13.201Z,16.40
2022-09-14T23:12:16.311Z,16.30
2022-09-14T23:17:25.052Z,16.30
2022-09-14T23:22:29.593Z,16.40
2022-09-14T23:27:32.665Z,16.50
2022-09-14T23:32:35.738Z,16.50
2022-09-14T23:37:40.254Z,16.50
2022-09-14T23:42:43.322Z,16.60
2022-09-14T23:47:47.066Z,16.60
2022-09-14T23:52:51.646Z,16.70
2022-09-14T23:57:55.144Z,16.70
